East Dennis, MA (02641)

7:35 AM EDT on August 31, 2014 (GMT -0400)
Scargo Hill Dennis MA | Change Station
CLOSE
Current Station
Personal Weather Station
Location: Dennis, MA
Elevation: 133 ft
Nearby Weather Stations

Elev 133 ft 41.74 °N, 70.18 °W | Updated 3 seconds ago

Overcast
Overcast
70.7 °F
Feels Like 70.7 °F
N
0.7
Wind Variable Wind from SE
Gusts 3.8 mph

Today
High -- | Low -- °F
--% Chance of Precip.
Yesterday
High -- | Low -- °F
Precip. -- in
6:05 AM 7:15 PM
Waxing Crescent, 30% visible
Pressure 30.13 in
Visibility 10.0 miles
Clouds Overcast 4000 ft
Dew Point 70 °F
Humidity 99%
Rainfall 0.00 in
Snow Depth Not available.
UV 0 out of 12
Pollen 8.80 out of 12
Ozone Good
Flu Activity Not available.
METAR KHYA 311056Z 22011KT 10SM OVC040 22/19 A3012 RMK AO2 SLP201 T02220189

More Conditions Fewer Conditions

Pressure 30.13 in
Visibility 10.0 miles
Clouds Overcast 4000 ft
Dew Point 70 °F
Humidity 99%
Rainfall 0.00 in
Snow Depth Not available.
UV 0 out of 12
Pollen 8.80 out of 12
Ozone Good
Flu Activity Not available.
METAR KHYA 311056Z 22011KT 10SM OVC040 22/19 A3012 RMK AO2 SLP201 T02220189

More Conditions Fewer Conditions

10-Day Weather Forecast

Almanac

Astronomy

Aug. 31, 2014 Rise Set
Actual Time 6:05 AM EDT 7:15 PM EDT
Civil Twilight 5:36 AM EDT 7:44 PM EDT
Nautical Twilight 5:02 AM EDT 8:18 PM EDT
Astronomical Twilight 4:26 AM EDT 8:54 PM EDT
Moon 11:53 AM EDT 10:22 PM EDT
Length of Visible Light 14h 07m
Length of Day
13h 10m
Tomorrow will be 2m 41s shorter.
Waxing Crescent, 30% of the Moon is Illuminated
Today
Waxing Crescent
Sep 2
First Quarter
Sep 8
Full
Sep 15
Last Quarter
Sep 24
New

Today's Extremes

State Highs State Lows

Community

WunderPhotos

Upload Photos

1,748,843 photos uploaded!

Nearby

Air Quality

  Air Quality AQ Index Pollutant
Yesterday Good
OZONE
Current Good
OZONE
Sunday Good
PM2.5
Sunday Good
OZONE
Monday Moderate
PM2.5
Monday Good
OZONE
Tuesday Moderate
PM2.5
Tuesday Moderate
OZONE

Snow Depth

Station Depth Elevation
No new snow has been reported.

Earthquake Activity

City Distance Mag. Time & Date
No recent earthquake activity has been reported nearby.
Minimum magnitude displayed is 2.5.

Coastal Water Temperatures

Place Temperature
Woods Hole, MA 71.1 °F
Nantucket Island, MA 71.1 °F
Boston, MA 68.0 °F
Fall River, MA 73.0 °F

Nearby Weather Stations